sensor_id;sensor_type;location;lat;lon;timestamp;temperature;humidity
4566;DHT22;2295;51.050;14.608;2022-09-09T00:01:04;11.60;99.90
4566;DHT22;2295;51.050;14.608;2022-09-09T00:03:42;11.70;99.90
4566;DHT22;2295;51.050;14.608;2022-09-09T00:06:19;11.60;99.90
4566;DHT22;2295;51.050;14.608;2022-09-09T00:08:59;11.60;99.90
4566;DHT22;2295;51.050;14.608;2022-09-09T00:11:36;11.50;99.90
4566;DHT22;2295;51.050;14.608;2022-09-09T00:14:13;11.50;99.90
4566;DHT22;2295;51.050;14.608;2022-09-09T00:16:49;11.50;99.90
4566;DHT22;2295;51.050;14.608;2022-09-09T00:19:22;11.50;99.90
4566;DHT22;2295;51.050;14.608;2022-09-09T00:21:58;11.50;99.90
4566;DHT22;2295;51.050;14.608;2022-09-09T00:24:34;11.40;99.90
4566;DHT22;2295;51.050;14.608;2022-09-09T00:27:14;11.40;99.90
4566;DHT22;2295;51.050;14.608;2022-09-09T00:29:47;11.50;99.90
4566;DHT22;2295;51.050;14.608;2022-09-09T00:32:20;11.60;99.90
4566;DHT22;2295;51.050;14.608;2022-09-09T00:34:52;11.80;99.90
4566;DHT22;2295;51.050;14.608;2022-09-09T00:37:22;12.00;99.90
4566;DHT22;2295;51.050;14.608;2022-09-09T00:39:55;12.10;99.90
4566;DHT22;2295;51.050;14.608;2022-09-09T00:42:37;12.10;99.90
4566;DHT22;2295;51.050;14.608;2022-09-09T00:45:25;12.20;99.90
4566;DHT22;2295;51.050;14.608;2022-09-09T00:48:02;12.20;99.90
4566;DHT22;2295;51.050;14.608;2022-09-09T00:50:39;12.20;99.90
4566;DHT22;2295;51.050;14.608;2022-09-09T00:53:24;12.20;99.90
4566;DHT22;2295;51.050;14.608;2022-09-09T00:56:02;12.10;99.90
4566;DHT22;2295;51.050;14.608;2022-09-09T00:58:35;12.00;99.90
4566;DHT22;2295;51.050;14.608;2022-09-09T01:01:05;11.90;99.90
4566;DHT22;2295;51.050;14.608;2022-09-09T01:03:36;11.70;99.90
4566;DHT22;2295;51.050;14.608;2022-09-09T01:06:13;11.70;99.90
4566;DHT22;2295;51.050;14.608;2022-09-09T01:11:52;11.50;99.90
4566;DHT22;2295;51.050;14.608;2022-09-09T01:14:32;11.40;99.90
4566;DHT22;2295;51.050;14.608;2022-09-09T01:17:14;11.30;99.90
4566;DHT22;2295;51.050;14.608;2022-09-09T01:19:55;11.30;99.90
4566;DHT22;2295;51.050;14.608;2022-09-09T01:22:33;11.30;99.90
4566;DHT22;2295;51.050;14.608;2022-09-09T01:25:24;11.30;99.90
4566;DHT22;2295;51.050;14.608;2022-09-09T01:27:59;11.30;99.90
4566;DHT22;2295;51.050;14.608;2022-09-09T01:30:28;11.20;99.90
4566;DHT22;2295;51.050;14.608;2022-09-09T01:32:58;11.10;99.90
4566;DHT22;2295;51.050;14.608;2022-09-09T01:35:37;11.10;99.90
4566;DHT22;2295;51.050;14.608;2022-09-09T01:38:07;11.10;99.90
4566;DHT22;2295;51.050;14.608;2022-09-09T01:40:36;11.00;99.90
4566;DHT22;2295;51.050;14.608;2022-09-09T01:43:06;11.10;99.90
4566;DHT22;2295;51.050;14.608;2022-09-09T01:45:35;11.20;99.90
4566;DHT22;2295;51.050;14.608;2022-09-09T01:48:03;11.30;99.90
4566;DHT22;2295;51.050;14.608;2022-09-09T01:50:32;11.30;99.90
4566;DHT22;2295;51.050;14.608;2022-09-09T01:53:01;11.30;99.90
4566;DHT22;2295;51.050;14.608;2022-09-09T01:55:33;11.30;99.90
4566;DHT22;2295;51.050;14.608;2022-09-09T01:58:19;11.30;99.90
4566;DHT22;2295;51.050;14.608;2022-09-09T02:00:56;11.30;99.90
4566;DHT22;2295;51.050;14.608;2022-09-09T02:03:28;11.20;99.90
4566;DHT22;2295;51.050;14.608;2022-09-09T02:06:07;11.20;99.90
4566;DHT22;2295;51.050;14.608;2022-09-09T02:08:42;11.20;99.90
4566;DHT22;2295;51.050;14.608;2022-09-09T02:11:14;11.10;99.90
4566;DHT22;2295;51.050;14.608;2022-09-09T02:13:46;11.10;99.90
4566;DHT22;2295;51.050;14.608;2022-09-09T02:16:20;11.10;99.90
4566;DHT22;2295;51.050;14.608;2022-09-09T02:18:52;11.10;99.90
4566;DHT22;2295;51.050;14.608;2022-09-09T02:21:22;11.10;99.90
4566;DHT22;2295;51.050;14.608;2022-09-09T02:23:52;11.10;99.90
4566;DHT22;2295;51.050;14.608;2022-09-09T02:26:22;11.10;99.90
4566;DHT22;2295;51.050;14.608;2022-09-09T02:28:55;11.00;99.90
4566;DHT22;2295;51.050;14.608;2022-09-09T02:31:25;11.00;99.90
4566;DHT22;2295;51.050;14.608;2022-09-09T02:33:56;11.00;99.90
4566;DHT22;2295;51.050;14.608;2022-09-09T02:36:27;11.00;99.90
4566;DHT22;2295;51.050;14.608;2022-09-09T02:38:57;10.90;99.90
4566;DHT22;2295;51.050;14.608;2022-09-09T02:41:30;11.00;99.90
4566;DHT22;2295;51.050;14.608;2022-09-09T02:44:01;10.90;99.90
4566;DHT22;2295;51.050;14.608;2022-09-09T02:46:52;10.90;99.90
4566;DHT22;2295;51.050;14.608;2022-09-09T02:49:32;10.90;99.90
4566;DHT22;2295;51.050;14.608;2022-09-09T02:52:06;10.80;99.90
4566;DHT22;2295;51.050;14.608;2022-09-09T02:54:37;10.80;99.90
4566;DHT22;2295;51.050;14.608;2022-09-09T02:57:10;10.80;99.90
4566;DHT22;2295;51.050;14.608;2022-09-09T02:59:40;10.70;99.90
4566;DHT22;2295;51.050;14.608;2022-09-09T03:02:09;10.70;99.90
4566;DHT22;2295;51.050;14.608;2022-09-09T03:04:38;10.60;99.90
4566;DHT22;2295;51.050;14.608;2022-09-09T03:07:07;10.50;99.90
4566;DHT22;2295;51.050;14.608;2022-09-09T03:09:36;10.50;99.90
4566;DHT22;2295;51.050;14.608;2022-09-09T03:12:05;10.50;99.90
4566;DHT22;2295;51.050;14.608;2022-09-09T03:14:33;10.50;99.90
4566;DHT22;2295;51.050;14.608;2022-09-09T03:17:04;10.60;99.90
4566;DHT22;2295;51.050;14.608;2022-09-09T03:19:32;10.70;99.90
4566;DHT22;2295;51.050;14.608;2022-09-09T03:22:03;10.80;99.90
4566;DHT22;2295;51.050;14.608;2022-09-09T03:24:32;10.90;99.90
4566;DHT22;2295;51.050;14.608;2022-09-09T03:27:00;11.10;99.90
4566;DHT22;2295;51.050;14.608;2022-09-09T03:29:28;11.20;99.90
4566;DHT22;2295;51.050;14.608;2022-09-09T03:31:56;11.30;99.90
4566;DHT22;2295;51.050;14.608;2022-09-09T03:34:26;11.30;99.90
4566;DHT22;2295;51.050;14.608;2022-09-09T03:36:54;11.40;99.90
4566;DHT22;2295;51.050;14.608;2022-09-09T03:39:23;11.40;99.90
4566;DHT22;2295;51.050;14.608;2022-09-09T03:41:51;11.50;99.90
4566;DHT22;2295;51.050;14.608;2022-09-09T03:44:19;11.60;99.90
4566;DHT22;2295;51.050;14.608;2022-09-09T03:46:47;11.70;99.90
4566;DHT22;2295;51.050;14.608;2022-09-09T03:49:15;11.70;99.90
4566;DHT22;2295;51.050;14.608;2022-09-09T03:51:45;11.60;99.90
4566;DHT22;2295;51.050;14.608;2022-09-09T03:54:13;11.50;99.90
4566;DHT22;2295;51.050;14.608;2022-09-09T03:56:42;11.50;99.90
4566;DHT22;2295;51.050;14.608;2022-09-09T03:59:10;11.50;99.90
4566;DHT22;2295;51.050;14.608;2022-09-09T04:01:38;11.40;99.90
4566;DHT22;2295;51.050;14.608;2022-09-09T04:04:07;11.30;99.90
4566;DHT22;2295;51.050;14.608;2022-09-09T04:06:35;11.20;99.90
4566;DHT22;2295;51.050;14.608;2022-09-09T04:09:05;11.20;99.90
4566;DHT22;2295;51.050;14.608;2022-09-09T04:11:33;11.10;99.90
4566;DHT22;2295;51.050;14.608;2022-09-09T04:14:01;11.00;99.90
4566;DHT22;2295;51.050;14.608;2022-09-09T04:16:30;10.90;99.90
4566;DHT22;2295;51.050;14.608;2022-09-09T04:18:59;10.90;99.90
4566;DHT22;2295;51.050;14.608;2022-09-09T04:21:28;10.80;99.90
4566;DHT22;2295;51.050;14.608;2022-09-09T04:23:56;10.70;99.90
4566;DHT22;2295;51.050;14.608;2022-09-09T04:26:26;10.60;99.90
4566;DHT22;2295;51.050;14.608;2022-09-09T04:28:54;10.60;99.90
4566;DHT22;2295;51.050;14.608;2022-09-09T04:31:23;10.50;99.90
4566;DHT22;2295;51.050;14.608;2022-09-09T04:33:51;10.40;99.90
4566;DHT22;2295;51.050;14.608;2022-09-09T04:36:19;10.30;99.90
4566;DHT22;2295;51.050;14.608;2022-09-09T04:38:48;10.30;99.90
4566;DHT22;2295;51.050;14.608;2022-09-09T04:41:16;10.20;99.90
4566;DHT22;2295;51.050;14.608;2022-09-09T04:43:46;10.20;99.90
4566;DHT22;2295;51.050;14.608;2022-09-09T04:46:14;10.20;99.90
4566;DHT22;2295;51.050;14.608;2022-09-09T04:48:44;10.20;99.90
4566;DHT22;2295;51.050;14.608;2022-09-09T04:51:13;10.20;99.90
4566;DHT22;2295;51.050;14.608;2022-09-09T04:53:42;10.30;99.90
4566;DHT22;2295;51.050;14.608;2022-09-09T04:56:12;10.30;99.90
4566;DHT22;2295;51.050;14.608;2022-09-09T04:58:41;10.40;99.90
4566;DHT22;2295;51.050;14.608;2022-09-09T05:01:12;10.40;99.90
4566;DHT22;2295;51.050;14.608;2022-09-09T05:03:40;10.50;99.90
4566;DHT22;2295;51.050;14.608;2022-09-09T05:06:10;10.60;99.90
4566;DHT22;2295;51.050;14.608;2022-09-09T05:08:40;10.60;99.90
4566;DHT22;2295;51.050;14.608;2022-09-09T05:11:16;10.60;99.90
4566;DHT22;2295;51.050;14.608;2022-09-09T05:13:45;10.70;99.90
4566;DHT22;2295;51.050;14.608;2022-09-09T05:16:15;10.70;99.90
4566;DHT22;2295;51.050;14.608;2022-09-09T05:18:44;10.70;99.90
4566;DHT22;2295;51.050;14.608;2022-09-09T05:21:18;10.90;99.90
4566;DHT22;2295;51.050;14.608;2022-09-09T05:23:47;11.00;99.90
4566;DHT22;2295;51.050;14.608;2022-09-09T05:26:17;11.20;99.90
4566;DHT22;2295;51.050;14.608;2022-09-09T05:28:46;11.40;99.90
4566;DHT22;2295;51.050;14.608;2022-09-09T05:31:17;11.60;99.90
4566;DHT22;2295;51.050;14.608;2022-09-09T05:33:46;11.70;99.90
4566;DHT22;2295;51.050;14.608;2022-09-09T05:36:17;11.90;99.90
4566;DHT22;2295;51.050;14.608;2022-09-09T05:38:47;12.10;99.90
4566;DHT22;2295;51.050;14.608;2022-09-09T05:41:16;12.20;99.90
4566;DHT22;2295;51.050;14.608;2022-09-09T05:43:46;12.40;99.90
4566;DHT22;2295;51.050;14.608;2022-09-09T05:46:19;12.60;99.90
4566;DHT22;2295;51.050;14.608;2022-09-09T05:48:49;12.70;99.90
4566;DHT22;2295;51.050;14.608;2022-09-09T05:51:20;12.80;99.90
4566;DHT22;2295;51.050;14.608;2022-09-09T05:53:49;13.00;99.90
4566;DHT22;2295;51.050;14.608;2022-09-09T05:56:19;13.30;99.90
4566;DHT22;2295;51.050;14.608;2022-09-09T05:58:49;13.50;99.90
4566;DHT22;2295;51.050;14.608;2022-09-09T06:01:21;13.60;99.90
4566;DHT22;2295;51.050;14.608;2022-09-09T06:03:50;13.70;99.90
4566;DHT22;2295;51.050;14.608;2022-09-09T06:06:21;13.90;99.90
4566;DHT22;2295;51.050;14.608;2022-09-09T06:08:51;14.10;99.90
4566;DHT22;2295;51.050;14.608;2022-09-09T06:11:21;14.20;99.90
4566;DHT22;2295;51.050;14.608;2022-09-09T06:13:50;14.40;99.90
4566;DHT22;2295;51.050;14.608;2022-09-09T06:16:23;14.70;99.90
4566;DHT22;2295;51.050;14.608;2022-09-09T06:18:52;15.00;99.90
4566;DHT22;2295;51.050;14.608;2022-09-09T06:21:22;15.20;99.90
4566;DHT22;2295;51.050;14.608;2022-09-09T06:23:51;15.50;99.90
4566;DHT22;2295;51.050;14.608;2022-09-09T06:26:27;16.10;99.90
4566;DHT22;2295;51.050;14.608;2022-09-09T06:28:58;16.90;99.90
4566;DHT22;2295;51.050;14.608;2022-09-09T06:31:29;17.90;99.90
4566;DHT22;2295;51.050;14.608;2022-09-09T06:33:58;19.00;99.90
4566;DHT22;2295;51.050;14.608;2022-09-09T06:36:28;19.70;98.40
4566;DHT22;2295;51.050;14.608;2022-09-09T06:38:58;20.50;94.50
4566;DHT22;2295;51.050;14.608;2022-09-09T06:41:28;21.30;91.10
4566;DHT22;2295;51.050;14.608;2022-09-09T06:43:56;22.00;89.80
4566;DHT22;2295;51.050;14.608;2022-09-09T06:46:29;22.60;85.10
4566;DHT22;2295;51.050;14.608;2022-09-09T06:49:00;22.70;83.50
4566;DHT22;2295;51.050;14.608;2022-09-09T06:51:30;22.60;79.70
4566;DHT22;2295;51.050;14.608;2022-09-09T06:54:00;22.30;83.70
4566;DHT22;2295;51.050;14.608;2022-09-09T06:56:31;22.60;80.80
4566;DHT22;2295;51.050;14.608;2022-09-09T06:59:01;23.40;79.90
4566;DHT22;2295;51.050;14.608;2022-09-09T07:01:34;24.20;75.80
4566;DHT22;2295;51.050;14.608;2022-09-09T07:04:03;24.80;68.30
4566;DHT22;2295;51.050;14.608;2022-09-09T07:06:36;25.20;67.70
4566;DHT22;2295;51.050;14.608;2022-09-09T07:09:06;25.70;63.00
4566;DHT22;2295;51.050;14.608;2022-09-09T07:11:38;25.70;60.00
4566;DHT22;2295;51.050;14.608;2022-09-09T07:14:06;24.90;63.50
4566;DHT22;2295;51.050;14.608;2022-09-09T07:16:37;24.40;67.00
4566;DHT22;2295;51.050;14.608;2022-09-09T07:19:05;23.80;67.40
4566;DHT22;2295;51.050;14.608;2022-09-09T07:21:33;23.40;69.40
4566;DHT22;2295;51.050;14.608;2022-09-09T07:24:02;23.40;72.50
4566;DHT22;2295;51.050;14.608;2022-09-09T07:26:34;23.90;69.10
4566;DHT22;2295;51.050;14.608;2022-09-09T07:29:03;24.80;68.40
4566;DHT22;2295;51.050;14.608;2022-09-09T07:31:33;25.20;64.80
4566;DHT22;2295;51.050;14.608;2022-09-09T07:34:04;25.50;61.80
4566;DHT22;2295;51.050;14.608;2022-09-09T07:36:35;24.80;63.40
4566;DHT22;2295;51.050;14.608;2022-09-09T07:39:06;23.90;66.40
4566;DHT22;2295;51.050;14.608;2022-09-09T07:41:37;23.40;70.70
4566;DHT22;2295;51.050;14.608;2022-09-09T07:44:07;23.10;70.90
4566;DHT22;2295;51.050;14.608;2022-09-09T07:46:36;23.00;72.20
4566;DHT22;2295;51.050;14.608;2022-09-09T07:49:08;23.50;71.20
4566;DHT22;2295;51.050;14.608;2022-09-09T07:51:39;24.50;68.60
4566;DHT22;2295;51.050;14.608;2022-09-09T07:54:09;25.40;66.00
4566;DHT22;2295;51.050;14.608;2022-09-09T07:56:39;26.20;59.80
4566;DHT22;2295;51.050;14.608;2022-09-09T07:59:08;26.30;61.20
4566;DHT22;2295;51.050;14.608;2022-09-09T08:01:39;27.00;59.10
4566;DHT22;2295;51.050;14.608;2022-09-09T08:04:12;27.10;58.60
4566;DHT22;2295;51.050;14.608;2022-09-09T08:06:43;27.50;56.50
4566;DHT22;2295;51.050;14.608;2022-09-09T08:09:14;27.60;56.00
4566;DHT22;2295;51.050;14.608;2022-09-09T08:11:42;27.70;58.10
4566;DHT22;2295;51.050;14.608;2022-09-09T08:14:11;28.20;53.60
4566;DHT22;2295;51.050;14.608;2022-09-09T08:16:41;28.00;55.50
4566;DHT22;2295;51.050;14.608;2022-09-09T08:19:12;27.70;55.50
4566;DHT22;2295;51.050;14.608;2022-09-09T08:21:43;27.80;53.80
4566;DHT22;2295;51.050;14.608;2022-09-09T08:24:12;27.80;53.10
4566;DHT22;2295;51.050;14.608;2022-09-09T08:26:43;27.80;54.10
4566;DHT22;2295;51.050;14.608;2022-09-09T08:29:13;27.80;53.80
4566;DHT22;2295;51.050;14.608;2022-09-09T08:31:43;27.80;53.30
4566;DHT22;2295;51.050;14.608;2022-09-09T08:34:14;28.00;53.20
4566;DHT22;2295;51.050;14.608;2022-09-09T08:36:44;28.30;53.40
4566;DHT22;2295;51.050;14.608;2022-09-09T08:39:14;28.20;52.10
4566;DHT22;2295;51.050;14.608;2022-09-09T08:42:22;27.00;53.00
4566;DHT22;2295;51.050;14.608;2022-09-09T08:45:23;26.30;56.40
4566;DHT22;2295;51.050;14.608;2022-09-09T08:48:13;27.00;56.40
4566;DHT22;2295;51.050;14.608;2022-09-09T08:50:45;27.20;53.90
4566;DHT22;2295;51.050;14.608;2022-09-09T08:53:21;27.50;54.20
4566;DHT22;2295;51.050;14.608;2022-09-09T08:55:53;27.10;55.10
4566;DHT22;2295;51.050;14.608;2022-09-09T08:58:25;26.90;54.80
4566;DHT22;2295;51.050;14.608;2022-09-09T09:01:02;27.10;53.90
4566;DHT22;2295;51.050;14.608;2022-09-09T09:03:43;27.50;55.50
4566;DHT22;2295;51.050;14.608;2022-09-09T09:06:26;28.90;52.20
4566;DHT22;2295;51.050;14.608;2022-09-09T09:09:04;29.50;49.70
4566;DHT22;2295;51.050;14.608;2022-09-09T09:11:38;29.10;49.70
4566;DHT22;2295;51.050;14.608;2022-09-09T09:14:10;28.70;48.90
4566;DHT22;2295;51.050;14.608;2022-09-09T09:16:47;28.40;50.90
4566;DHT22;2295;51.050;14.608;2022-09-09T09:19:18;28.90;50.30
4566;DHT22;2295;51.050;14.608;2022-09-09T09:21:54;29.40;48.20
4566;DHT22;2295;51.050;14.608;2022-09-09T09:24:29;29.70;47.30
4566;DHT22;2295;51.050;14.608;2022-09-09T09:27:01;29.80;47.80
4566;DHT22;2295;51.050;14.608;2022-09-09T09:29:35;30.50;46.30
4566;DHT22;2295;51.050;14.608;2022-09-09T09:32:26;30.60;47.30
4566;DHT22;2295;51.050;14.608;2022-09-09T09:34:57;30.70;45.30
4566;DHT22;2295;51.050;14.608;2022-09-09T09:37:31;30.60;46.10
4566;DHT22;2295;51.050;14.608;2022-09-09T09:40:08;29.90;48.10
4566;DHT22;2295;51.050;14.608;2022-09-09T09:42:38;30.20;47.00
4566;DHT22;2295;51.050;14.608;2022-09-09T09:45:17;30.20;47.40
4566;DHT22;2295;51.050;14.608;2022-09-09T09:47:58;30.50;47.70
4566;DHT22;2295;51.050;14.608;2022-09-09T09:50:33;31.00;45.60
4566;DHT22;2295;51.050;14.608;2022-09-09T09:53:04;30.90;42.90
4566;DHT22;2295;51.050;14.608;2022-09-09T09:55:35;30.10;46.80
4566;DHT22;2295;51.050;14.608;2022-09-09T09:58:06;29.40;45.20
4566;DHT22;2295;51.050;14.608;2022-09-09T10:00:35;28.70;48.10
4566;DHT22;2295;51.050;14.608;2022-09-09T10:03:17;28.50;49.50
4566;DHT22;2295;51.050;14.608;2022-09-09T10:05:48;29.20;47.00
4566;DHT22;2295;51.050;14.608;2022-09-09T10:08:18;29.90;46.50
4566;DHT22;2295;51.050;14.608;2022-09-09T10:10:56;29.40;45.50
4566;DHT22;2295;51.050;14.608;2022-09-09T10:13:29;28.20;48.80
4566;DHT22;2295;51.050;14.608;2022-09-09T10:16:09;26.80;50.90
4566;DHT22;2295;51.050;14.608;2022-09-09T10:18:50;25.70;52.70
4566;DHT22;2295;51.050;14.608;2022-09-09T10:21:32;24.90;55.80
4566;DHT22;2295;51.050;14.608;2022-09-09T10:24:36;24.40;57.40
4566;DHT22;2295;51.050;14.608;2022-09-09T10:27:17;24.40;59.00
4566;DHT22;2295;51.050;14.608;2022-09-09T10:30:04;24.40;58.50
4566;DHT22;2295;51.050;14.608;2022-09-09T10:32:45;24.10;60.80
4566;DHT22;2295;51.050;14.608;2022-09-09T10:35:25;23.70;60.90
4566;DHT22;2295;51.050;14.608;2022-09-09T10:38:16;24.30;60.70
4566;DHT22;2295;51.050;14.608;2022-09-09T10:41:05;24.20;59.20
4566;DHT22;2295;51.050;14.608;2022-09-09T10:44:06;23.80;59.10
4566;DHT22;2295;51.050;14.608;2022-09-09T10:46:44;24.10;59.70
4566;DHT22;2295;51.050;14.608;2022-09-09T10:49:28;24.40;58.10
4566;DHT22;2295;51.050;14.608;2022-09-09T10:52:04;24.90;55.70
4566;DHT22;2295;51.050;14.608;2022-09-09T10:54:46;25.80;55.40
4566;DHT22;2295;51.050;14.608;2022-09-09T10:57:27;26.20;53.10
4566;DHT22;2295;51.050;14.608;2022-09-09T11:00:03;26.70;53.00
4566;DHT22;2295;51.050;14.608;2022-09-09T11:02:33;27.00;50.50
4566;DHT22;2295;51.050;14.608;2022-09-09T11:05:05;27.60;51.70
4566;DHT22;2295;51.050;14.608;2022-09-09T11:07:39;27.70;50.10
4566;DHT22;2295;51.050;14.608;2022-09-09T11:10:21;27.20;53.00
4566;DHT22;2295;51.050;14.608;2022-09-09T11:12:56;26.30;54.30
4566;DHT22;2295;51.050;14.608;2022-09-09T11:15:31;26.00;56.40
4566;DHT22;2295;51.050;14.608;2022-09-09T11:18:04;26.40;57.20
4566;DHT22;2295;51.050;14.608;2022-09-09T11:20:34;26.70;55.70
4566;DHT22;2295;51.050;14.608;2022-09-09T11:23:08;27.00;53.90
4566;DHT22;2295;51.050;14.608;2022-09-09T11:25:39;27.60;50.90
4566;DHT22;2295;51.050;14.608;2022-09-09T11:28:32;27.70;52.40
4566;DHT22;2295;51.050;14.608;2022-09-09T11:31:18;27.10;52.00
4566;DHT22;2295;51.050;14.608;2022-09-09T11:34:12;25.90;53.40
4566;DHT22;2295;51.050;14.608;2022-09-09T11:36:56;25.40;57.40
4566;DHT22;2295;51.050;14.608;2022-09-09T11:39:48;26.20;55.40
4566;DHT22;2295;51.050;14.608;2022-09-09T11:42:23;27.30;50.70
4566;DHT22;2295;51.050;14.608;2022-09-09T11:44:53;27.30;50.50
4566;DHT22;2295;51.050;14.608;2022-09-09T11:47:25;26.70;52.20
4566;DHT22;2295;51.050;14.608;2022-09-09T11:50:08;25.70;55.00
4566;DHT22;2295;51.050;14.608;2022-09-09T11:52:39;24.90;56.50
4566;DHT22;2295;51.050;14.608;2022-09-09T11:55:10;24.20;58.90
4566;DHT22;2295;51.050;14.608;2022-09-09T11:57:39;23.80;62.80
4566;DHT22;2295;51.050;14.608;2022-09-09T12:00:37;24.70;59.20
4566;DHT22;2295;51.050;14.608;2022-09-09T12:03:32;25.30;56.70
4566;DHT22;2295;51.050;14.608;2022-09-09T12:06:11;25.00;59.20
4566;DHT22;2295;51.050;14.608;2022-09-09T12:08:43;24.60;59.70
4566;DHT22;2295;51.050;14.608;2022-09-09T12:11:11;24.50;61.40
4566;DHT22;2295;51.050;14.608;2022-09-09T12:13:53;24.90;61.50
4566;DHT22;2295;51.050;14.608;2022-09-09T12:16:32;26.20;58.00
4566;DHT22;2295;51.050;14.608;2022-09-09T12:19:12;27.10;56.00
4566;DHT22;2295;51.050;14.608;2022-09-09T12:21:46;27.20;53.40
4566;DHT22;2295;51.050;14.608;2022-09-09T12:24:20;27.60;53.40
4566;DHT22;2295;51.050;14.608;2022-09-09T12:26:58;28.10;53.90
4566;DHT22;2295;51.050;14.608;2022-09-09T12:29:36;28.80;51.70
4566;DHT22;2295;51.050;14.608;2022-09-09T12:32:11;29.30;49.20
4566;DHT22;2295;51.050;14.608;2022-09-09T12:34:42;29.50;48.20
4566;DHT22;2295;51.050;14.608;2022-09-09T12:37:16;28.70;49.90
4566;DHT22;2295;51.050;14.608;2022-09-09T12:39:51;27.40;51.40
4566;DHT22;2295;51.050;14.608;2022-09-09T12:42:21;26.00;53.70
4566;DHT22;2295;51.050;14.608;2022-09-09T12:44:57;25.00;57.80
4566;DHT22;2295;51.050;14.608;2022-09-09T12:47:32;24.40;61.00
4566;DHT22;2295;51.050;14.608;2022-09-09T12:50:03;23.90;62.10
4566;DHT22;2295;51.050;14.608;2022-09-09T12:52:34;24.30;61.00
4566;DHT22;2295;51.050;14.608;2022-09-09T12:55:05;24.70;59.50
4566;DHT22;2295;51.050;14.608;2022-09-09T12:57:37;25.00;58.60
4566;DHT22;2295;51.050;14.608;2022-09-09T13:00:12;25.20;60.80
4566;DHT22;2295;51.050;14.608;2022-09-09T13:02:49;26.30;59.30
4566;DHT22;2295;51.050;14.608;2022-09-09T13:05:21;27.40;54.20
4566;DHT22;2295;51.050;14.608;2022-09-09T13:07:50;28.10;54.00
4566;DHT22;2295;51.050;14.608;2022-09-09T13:10:24;28.50;50.50
4566;DHT22;2295;51.050;14.608;2022-09-09T13:13:13;28.10;49.50
4566;DHT22;2295;51.050;14.608;2022-09-09T13:15:50;27.90;53.20
4566;DHT22;2295;51.050;14.608;2022-09-09T13:18:23;28.50;50.40
4566;DHT22;2295;51.050;14.608;2022-09-09T13:20:52;28.70;49.00
4566;DHT22;2295;51.050;14.608;2022-09-09T13:23:21;28.30;50.00
4566;DHT22;2295;51.050;14.608;2022-09-09T13:25:54;27.70;50.60
4566;DHT22;2295;51.050;14.608;2022-09-09T13:28:24;27.10;52.10
4566;DHT22;2295;51.050;14.608;2022-09-09T13:31:00;26.90;53.30
4566;DHT22;2295;51.050;14.608;2022-09-09T13:33:33;26.50;53.00
4566;DHT22;2295;51.050;14.608;2022-09-09T13:36:03;25.90;53.50
4566;DHT22;2295;51.050;14.608;2022-09-09T13:38:35;25.40;56.20
4566;DHT22;2295;51.050;14.608;2022-09-09T13:41:06;25.00;56.70
4566;DHT22;2295;51.050;14.608;2022-09-09T13:43:37;24.60;57.20
4566;DHT22;2295;51.050;14.608;2022-09-09T13:46:24;24.20;57.90
4566;DHT22;2295;51.050;14.608;2022-09-09T13:48:58;24.00;58.60
4566;DHT22;2295;51.050;14.608;2022-09-09T13:51:34;23.90;60.20
4566;DHT22;2295;51.050;14.608;2022-09-09T13:54:04;23.80;61.60
4566;DHT22;2295;51.050;14.608;2022-09-09T13:56:34;24.00;59.90
4566;DHT22;2295;51.050;14.608;2022-09-09T13:59:04;24.30;64.40
4566;DHT22;2295;51.050;14.608;2022-09-09T14:01:33;24.50;57.80
4566;DHT22;2295;51.050;14.608;2022-09-09T14:04:03;25.00;59.10
4566;DHT22;2295;51.050;14.608;2022-09-09T14:06:34;25.40;58.20
4566;DHT22;2295;51.050;14.608;2022-09-09T14:09:04;25.10;56.00
4566;DHT22;2295;51.050;14.608;2022-09-09T14:11:32;25.00;57.50
4566;DHT22;2295;51.050;14.608;2022-09-09T14:14:00;25.40;57.10
4566;DHT22;2295;51.050;14.608;2022-09-09T14:16:29;25.60;55.70
4566;DHT22;2295;51.050;14.608;2022-09-09T14:18:57;25.40;55.20
4566;DHT22;2295;51.050;14.608;2022-09-09T14:21:27;24.60;56.70
4566;DHT22;2295;51.050;14.608;2022-09-09T14:23:56;24.30;59.70
4566;DHT22;2295;51.050;14.608;2022-09-09T14:26:25;24.00;60.80
4566;DHT22;2295;51.050;14.608;2022-09-09T14:28:55;23.80;62.00
4566;DHT22;2295;51.050;14.608;2022-09-09T14:31:24;23.70;61.60
4566;DHT22;2295;51.050;14.608;2022-09-09T14:33:53;23.80;60.00
4566;DHT22;2295;51.050;14.608;2022-09-09T14:36:21;23.70;62.00
4566;DHT22;2295;51.050;14.608;2022-09-09T14:38:52;23.80;62.40
4566;DHT22;2295;51.050;14.608;2022-09-09T14:41:21;23.90;62.60
4566;DHT22;2295;51.050;14.608;2022-09-09T14:43:50;23.80;62.60
4566;DHT22;2295;51.050;14.608;2022-09-09T14:46:20;24.00;60.70
4566;DHT22;2295;51.050;14.608;2022-09-09T14:48:48;23.60;60.80
4566;DHT22;2295;51.050;14.608;2022-09-09T14:51:19;23.50;63.30
4566;DHT22;2295;51.050;14.608;2022-09-09T14:53:53;23.70;62.20
4566;DHT22;2295;51.050;14.608;2022-09-09T14:56:24;23.80;62.20
4566;DHT22;2295;51.050;14.608;2022-09-09T14:58:53;23.50;59.60
4566;DHT22;2295;51.050;14.608;2022-09-09T15:01:22;23.20;61.80
4566;DHT22;2295;51.050;14.608;2022-09-09T15:03:56;23.20;61.90
4566;DHT22;2295;51.050;14.608;2022-09-09T15:06:26;23.00;60.90
4566;DHT22;2295;51.050;14.608;2022-09-09T15:08:57;22.50;61.30
4566;DHT22;2295;51.050;14.608;2022-09-09T15:11:26;22.30;63.10
4566;DHT22;2295;51.050;14.608;2022-09-09T15:13:57;22.00;64.30
4566;DHT22;2295;51.050;14.608;2022-09-09T15:16:27;21.80;64.30
4566;DHT22;2295;51.050;14.608;2022-09-09T15:18:57;21.80;65.60
4566;DHT22;2295;51.050;14.608;2022-09-09T15:21:27;21.70;65.60
4566;DHT22;2295;51.050;14.608;2022-09-09T15:23:57;21.70;66.50
4566;DHT22;2295;51.050;14.608;2022-09-09T15:26:26;21.70;66.70
4566;DHT22;2295;51.050;14.608;2022-09-09T15:28:55;21.80;68.40
4566;DHT22;2295;51.050;14.608;2022-09-09T15:31:28;22.30;65.70
4566;DHT22;2295;51.050;14.608;2022-09-09T15:33:59;22.50;64.30
4566;DHT22;2295;51.050;14.608;2022-09-09T15:36:29;22.50;64.50
4566;DHT22;2295;51.050;14.608;2022-09-09T15:39:01;22.30;64.40
4566;DHT22;2295;51.050;14.608;2022-09-09T15:41:31;22.30;65.20
4566;DHT22;2295;51.050;14.608;2022-09-09T15:44:00;22.50;64.20
4566;DHT22;2295;51.050;14.608;2022-09-09T15:46:31;22.50;64.40
4566;DHT22;2295;51.050;14.608;2022-09-09T15:49:04;22.10;66.00
4566;DHT22;2295;51.050;14.608;2022-09-09T15:51:33;21.90;67.70
4566;DHT22;2295;51.050;14.608;2022-09-09T15:54:14;21.60;69.30
4566;DHT22;2295;51.050;14.608;2022-09-09T15:56:44;21.30;71.00
4566;DHT22;2295;51.050;14.608;2022-09-09T15:59:13;20.90;73.50
4566;DHT22;2295;51.050;14.608;2022-09-09T16:01:42;20.60;75.00
4566;DHT22;2295;51.050;14.608;2022-09-09T16:04:11;20.50;76.40
4566;DHT22;2295;51.050;14.608;2022-09-09T16:06:39;20.30;77.50
4566;DHT22;2295;51.050;14.608;2022-09-09T16:09:08;20.10;77.70
4566;DHT22;2295;51.050;14.608;2022-09-09T16:11:39;19.90;78.20
4566;DHT22;2295;51.050;14.608;2022-09-09T16:14:07;19.80;79.40
4566;DHT22;2295;51.050;14.608;2022-09-09T16:16:35;19.70;80.30
4566;DHT22;2295;51.050;14.608;2022-09-09T16:19:06;19.50;81.70
4566;DHT22;2295;51.050;14.608;2022-09-09T16:21:37;19.30;82.10
4566;DHT22;2295;51.050;14.608;2022-09-09T16:24:08;19.30;83.10